createdAt,value
2019-04-10T00:02:39.867Z,4.53
2019-04-10T00:05:47.973Z,4.57
2019-04-10T00:08:55.290Z,4.55
2019-04-10T00:12:02.691Z,4.56
2019-04-10T00:15:10.095Z,4.45
2019-04-10T00:18:18.009Z,4.32
2019-04-10T00:21:35.527Z,4.47
2019-04-10T00:24:42.911Z,4.28
2019-04-10T00:27:50.784Z,4.24
2019-04-10T00:31:07.614Z,4.17
2019-04-10T00:34:25.332Z,4.11
2019-04-10T00:37:33.907Z,4.04
2019-04-10T00:40:41.964Z,4.17
2019-04-10T00:43:59.379Z,4.17
2019-04-10T00:47:06.727Z,4.15
2019-04-10T00:50:14.633Z,4.26
2019-04-10T00:53:31.406Z,4.34
2019-04-10T00:56:48.573Z,4.28
2019-04-10T01:00:06.494Z,4.20
2019-04-10T01:03:33.715Z,4.24
2019-04-10T01:06:41.055Z,4.16
2019-04-10T01:09:48.274Z,4.03
2019-04-10T01:12:56.544Z,4.05
2019-04-10T01:16:04.162Z,3.96
2019-04-10T01:19:12.074Z,3.91
2019-04-10T01:22:19.302Z,3.92
2019-04-10T01:25:26.600Z,3.98
2019-04-10T01:28:43.364Z,3.98
2019-04-10T01:31:51.222Z,3.97
2019-04-10T01:34:58.891Z,3.96
2019-04-10T01:38:06.628Z,3.89
2019-04-10T01:41:13.698Z,3.99
2019-04-10T01:44:20.922Z,4.07
2019-04-10T01:47:28.901Z,4.09
2019-04-10T01:50:36.785Z,4.01
2019-04-10T01:53:44.221Z,3.88
2019-04-10T01:56:52.130Z,3.98
2019-04-10T02:00:00.412Z,3.97
2019-04-10T02:03:22.209Z,3.90
2019-04-10T02:06:29.562Z,3.81
2019-04-10T02:09:37.193Z,3.86
2019-04-10T02:12:45.151Z,3.74
2019-04-10T02:16:02.766Z,3.73
2019-04-10T02:19:10.133Z,3.65
2019-04-10T02:22:17.519Z,3.58
2019-04-10T02:25:24.871Z,3.34
2019-04-10T02:28:33.359Z,3.38
2019-04-10T02:31:40.607Z,3.49
2019-04-10T02:34:49.142Z,3.59
2019-04-10T02:38:00.570Z,3.64
2019-04-10T02:41:06.552Z,3.49
2019-04-10T02:44:26.119Z,3.56
2019-04-10T02:47:50.911Z,3.60
2019-04-10T02:50:59.573Z,3.55
2019-04-10T02:54:07.107Z,3.60
2019-04-10T02:57:14.340Z,3.61
2019-04-10T03:00:22.470Z,3.52
2019-04-10T03:03:31.035Z,3.49
2019-04-10T03:06:47.942Z,3.52
2019-04-10T03:10:21.663Z,3.60
2019-04-10T03:13:30.933Z,3.56
2019-04-10T03:16:47.893Z,3.68
2019-04-10T03:19:56.080Z,3.48
2019-04-10T03:23:03.466Z,3.41
2019-04-10T03:26:20.271Z,3.51
2019-04-10T03:29:37.993Z,3.58
2019-04-10T03:33:07.465Z,3.52
2019-04-10T03:36:13.649Z,3.59
2019-04-10T03:39:21.599Z,3.49
2019-04-10T03:42:28.915Z,3.38
2019-04-10T03:45:36.953Z,3.30
2019-04-10T03:48:53.790Z,3.31
2019-04-10T03:51:59.309Z,3.25
2019-04-10T03:55:06.821Z,3.34
2019-04-10T03:58:23.477Z,3.27
2019-04-10T04:01:29.951Z,3.14
2019-04-10T04:04:37.694Z,2.88
2019-04-10T04:07:45.150Z,3.04
2019-04-10T04:11:03.088Z,3.08
2019-04-10T04:14:10.442Z,2.94
2019-04-10T04:17:17.681Z,2.95
2019-04-10T04:20:35.011Z,2.99
2019-04-10T04:23:42.641Z,3.01
2019-04-10T04:26:50.799Z,2.72
2019-04-10T04:30:08.432Z,2.91
2019-04-10T04:33:15.639Z,2.97
2019-04-10T04:36:22.881Z,3.09
2019-04-10T04:39:31.425Z,3.04
2019-04-10T04:42:38.828Z,3.12
2019-04-10T04:45:46.306Z,3.10
2019-04-10T04:48:54.291Z,3.12
2019-04-10T04:52:01.106Z,3.25
2019-04-10T04:55:17.889Z,3.13
2019-04-10T04:58:34.555Z,3.09
2019-04-10T05:01:42.522Z,2.89
2019-04-10T05:04:49.848Z,2.74
2019-04-10T05:08:02.234Z,2.69
2019-04-10T05:11:06.419Z,2.71
2019-04-10T05:14:13.835Z,2.63
2019-04-10T05:17:30.962Z,2.68
2019-04-10T05:20:50.480Z,2.89
2019-04-10T05:24:05.918Z,2.90
2019-04-10T05:27:14.113Z,2.92
2019-04-10T05:30:21.259Z,3.07
2019-04-10T05:33:28.879Z,3.04
2019-04-10T05:36:36.188Z,3.16
2019-04-10T05:39:50.298Z,3.19
2019-04-10T05:43:01.951Z,3.31
2019-04-10T05:46:18.649Z,3.44
2019-04-10T05:49:26.007Z,3.47
2019-04-10T05:52:43.026Z,3.51
2019-04-10T05:55:59.393Z,3.53
2019-04-10T05:59:08.546Z,3.53
2019-04-10T06:02:25.221Z,3.60
2019-04-10T06:05:42.437Z,3.52
2019-04-10T06:08:49.694Z,3.43
2019-04-10T06:11:57.371Z,3.44
2019-04-10T06:15:06.470Z,3.53
2019-04-10T06:18:13.934Z,3.54
2019-04-10T06:21:31.421Z,3.66
2019-04-10T06:24:38.789Z,3.69
2019-04-10T06:27:58.942Z,3.75
2019-04-10T06:31:06.216Z,3.68
2019-04-10T06:34:16.020Z,3.75
2019-04-10T06:37:30.628Z,3.76
2019-04-10T06:40:48.226Z,3.92
2019-04-10T06:43:55.507Z,3.93
2019-04-10T06:47:02.785Z,4.02
2019-04-10T06:50:10.659Z,4.09
2019-04-10T06:53:33.656Z,4.11
2019-04-10T06:56:50.337Z,4.22
2019-04-10T07:00:12.713Z,4.32
2019-04-10T07:03:18.948Z,4.34
2019-04-10T07:06:39.368Z,4.32
2019-04-10T07:09:35.833Z,4.46
2019-04-10T07:12:43.894Z,4.54
2019-04-10T07:15:54.501Z,4.61
2019-04-10T07:19:11.633Z,4.79
2019-04-10T07:22:28.956Z,4.85
2019-04-10T07:25:37.441Z,4.95
2019-04-10T07:28:46.411Z,4.95
2019-04-10T07:31:54.891Z,4.94
2019-04-10T07:35:03.273Z,4.98
2019-04-10T07:38:21.195Z,5.21
2019-04-10T07:41:29.347Z,5.22
2019-04-10T07:44:36.710Z,5.24
2019-04-10T07:47:44.126Z,5.34
2019-04-10T07:50:51.618Z,5.19
2019-04-10T07:53:59.756Z,5.27
2019-04-10T07:57:08.297Z,5.42
2019-04-10T08:00:25.338Z,5.50
2019-04-10T08:03:33.421Z,5.51
2019-04-10T08:06:39.560Z,5.66
2019-04-10T08:09:47.124Z,5.71
2019-04-10T08:12:54.433Z,5.80
2019-04-10T08:16:02.839Z,5.89
2019-04-10T08:19:10.415Z,5.86
2019-04-10T08:22:18.000Z,5.98
2019-04-10T08:25:25.483Z,6.08
2019-04-10T08:28:43.307Z,6.04
2019-04-10T08:31:50.614Z,5.86
2019-04-10T08:34:58.224Z,5.87
2019-04-10T08:38:05.552Z,6.05
2019-04-10T08:41:23.311Z,6.01
2019-04-10T08:44:30.528Z,5.90
2019-04-10T08:47:37.833Z,5.99
2019-04-10T08:50:46.063Z,5.90
2019-04-10T08:53:55.226Z,5.91
2019-04-10T08:57:03.289Z,6.07
2019-04-10T09:00:20.654Z,6.18
2019-04-10T09:03:27.907Z,6.39
2019-04-10T09:06:33.994Z,6.43
2019-04-10T09:09:41.606Z,6.67
2019-04-10T09:12:58.300Z,6.97
2019-04-10T09:16:15.474Z,7.03
2019-04-10T09:19:31.971Z,7.19
2019-04-10T09:23:06.686Z,7.32
2019-04-10T09:25:57.678Z,7.42
2019-04-10T09:29:06.706Z,7.31
2019-04-10T09:32:14.650Z,7.40
2019-04-10T09:35:22.820Z,7.51
2019-04-10T09:38:30.614Z,7.90
2019-04-10T09:41:38.314Z,7.96
2019-04-10T09:45:01.090Z,7.87
2019-04-10T09:48:18.670Z,7.90
2019-04-10T09:51:26.676Z,8.09
2019-04-10T09:54:34.862Z,8.34
2019-04-10T09:57:43.089Z,8.37
2019-04-10T10:01:01.551Z,8.22
2019-04-10T10:04:09.195Z,8.15
2019-04-10T10:07:16.483Z,7.98
2019-04-10T10:10:24.660Z,8.20
2019-04-10T10:13:31.856Z,8.41
2019-04-10T10:16:48.445Z,8.56
2019-04-10T10:20:07.910Z,8.58
2019-04-10T10:23:15.816Z,8.51
2019-04-10T10:26:32.980Z,8.79
2019-04-10T10:29:40.371Z,8.80
2019-04-10T10:32:48.845Z,9.06
2019-04-10T10:35:56.126Z,9.18
2019-04-10T10:39:10.580Z,9.24
2019-04-10T10:42:11.889Z,9.25
2019-04-10T10:45:29.063Z,9.20
2019-04-10T10:48:36.398Z,9.18
2019-04-10T10:51:44.695Z,8.96
2019-04-10T10:55:01.190Z,9.05
2019-04-10T10:58:17.942Z,8.88
2019-04-10T11:01:25.241Z,8.81
2019-04-10T11:04:43.271Z,8.98
2019-04-10T11:07:51.532Z,9.03
2019-04-10T11:10:59.465Z,9.16
2019-04-10T11:14:08.214Z,9.18
2019-04-10T11:17:15.794Z,9.18
2019-04-10T11:20:32.567Z,9.24
2019-04-10T11:23:49.468Z,9.77
2019-04-10T11:27:07.921Z,9.84
2019-04-10T11:30:24.921Z,9.85
2019-04-10T11:33:41.374Z,10.13
2019-04-10T11:37:16.717Z,10.26
2019-04-10T11:40:18.014Z,9.93
2019-04-10T11:43:36.206Z,9.99
2019-04-10T11:46:55.632Z,10.07
2019-04-10T11:50:16.827Z,9.93
2019-04-10T11:53:32.686Z,9.85
2019-04-10T11:56:39.138Z,9.84
2019-04-10T11:59:57.028Z,10.36
2019-04-10T12:03:16.004Z,10.79
2019-04-10T12:06:33.885Z,10.68
2019-04-10T12:13:10.187Z,10.43
2019-04-10T12:16:16.820Z,10.10
2019-04-10T12:19:25.242Z,10.04
2019-04-10T12:22:33.761Z,9.93
2019-04-10T12:25:39.871Z,11.45
2019-04-10T12:28:48.044Z,12.90
2019-04-10T12:31:56.554Z,13.98
2019-04-10T12:35:04.684Z,13.47
2019-04-10T12:38:13.240Z,12.69
2019-04-10T12:41:21.471Z,12.00
2019-04-10T12:44:29.656Z,11.43
2019-04-10T12:47:46.205Z,11.33
2019-04-10T12:50:53.391Z,11.08
2019-04-10T12:54:01.160Z,12.58
2019-04-10T12:57:08.576Z,14.10
2019-04-10T13:00:23.643Z,15.47
2019-04-10T13:03:31.361Z,16.30
2019-04-10T13:06:38.626Z,16.10
2019-04-10T13:09:46.379Z,15.53
2019-04-10T13:13:04.040Z,15.57
2019-04-10T13:16:11.978Z,15.94
2019-04-10T13:19:29.173Z,14.85
2019-04-10T13:22:38.515Z,15.47
2019-04-10T13:25:55.065Z,16.13
2019-04-10T13:28:54.635Z,16.32
2019-04-10T13:32:01.916Z,15.62
2019-04-10T13:35:10.347Z,15.36
2019-04-10T13:38:24.131Z,15.71
2019-04-10T13:41:26.618Z,15.77
2019-04-10T13:44:34.882Z,16.26
2019-04-10T13:47:42.855Z,16.96
2019-04-10T13:50:50.813Z,16.84
2019-04-10T13:53:58.530Z,16.99
2019-04-10T13:57:05.860Z,17.04
2019-04-10T14:00:33.641Z,16.43
2019-04-10T14:03:42.478Z,17.15
2019-04-10T14:06:50.022Z,17.66
2019-04-10T14:09:58.582Z,17.43
2019-04-10T14:13:07.346Z,16.65
2019-04-10T14:16:14.939Z,16.44
2019-04-10T14:19:22.171Z,17.35
2019-04-10T14:22:29.585Z,16.85
2019-04-10T14:26:39.141Z,17.34
2019-04-10T14:29:38.548Z,16.98
2019-04-10T14:32:55.309Z,17.03
2019-04-10T14:36:11.995Z,16.65
2019-04-10T14:39:28.915Z,16.19
2019-04-10T14:42:45.656Z,15.30
2019-04-10T14:46:03.155Z,16.69
2019-04-10T14:49:11.128Z,16.82
2019-04-10T14:52:18.976Z,16.52
2019-04-10T14:55:27.253Z,16.66
2019-04-10T14:58:35.403Z,16.60
2019-04-10T15:01:42.681Z,16.24
2019-04-10T15:04:51.179Z,16.04
2019-04-10T15:07:59.503Z,16.50
2019-04-10T15:11:16.305Z,16.14
2019-04-10T15:14:33.963Z,16.27
2019-04-10T15:17:42.213Z,16.08
2019-04-10T15:20:58.658Z,15.86
2019-04-10T15:24:15.415Z,16.01
2019-04-10T15:27:32.135Z,15.95
2019-04-10T15:30:48.947Z,15.94
2019-04-10T15:33:56.293Z,15.18
2019-04-10T15:37:13.163Z,15.26
2019-04-10T15:40:30.325Z,14.83
2019-04-10T15:43:37.770Z,14.12
2019-04-10T15:46:45.639Z,15.10
2019-04-10T15:49:53.546Z,14.88
2019-04-10T15:53:01.973Z,14.80
2019-04-10T15:56:19.441Z,14.31
2019-04-10T15:59:37.107Z,14.22
2019-04-10T16:02:54.388Z,13.78
2019-04-10T16:06:02.688Z,13.43
2019-04-10T16:09:10.459Z,13.11
2019-04-10T16:12:20.597Z,12.71
2019-04-10T16:15:39.311Z,12.46
2019-04-10T16:18:48.555Z,12.07
2019-04-10T16:21:56.349Z,11.89
2019-04-10T16:25:07.399Z,11.38
2019-04-10T16:28:14.635Z,11.69
2019-04-10T16:31:21.758Z,11.47
2019-04-10T16:34:29.011Z,11.39
2019-04-10T16:37:36.318Z,11.32
2019-04-10T16:40:43.832Z,11.08
2019-04-10T16:43:50.980Z,10.89
2019-04-10T16:46:58.529Z,10.70
2019-04-10T16:50:05.975Z,10.54
2019-04-10T16:53:13.826Z,10.44
2019-04-10T16:56:21.272Z,10.49
2019-04-10T16:59:28.578Z,10.35
2019-04-10T17:02:36.562Z,10.32
2019-04-10T17:05:53.615Z,10.32
2019-04-10T17:09:00.940Z,10.25
2019-04-10T17:12:09.404Z,10.19
2019-04-10T17:15:26.283Z,10.05
2019-04-10T17:18:43.451Z,10.06
2019-04-10T17:21:50.813Z,10.06
2019-04-10T17:24:58.830Z,9.90
2019-04-10T17:28:08.220Z,9.71
2019-04-10T17:31:16.220Z,9.61
2019-04-10T17:34:23.537Z,9.48
2019-04-10T17:37:31.849Z,9.26
2019-04-10T17:40:47.752Z,9.12
2019-04-10T17:43:49.465Z,9.00
2019-04-10T17:46:57.606Z,8.86
2019-04-10T17:50:18.383Z,8.86
2019-04-10T17:53:25.681Z,8.65
2019-04-10T17:56:33.004Z,8.64
2019-04-10T17:59:40.736Z,8.50
2019-04-10T18:02:57.253Z,8.71
2019-04-10T18:06:15.149Z,8.46
2019-04-10T18:09:24.810Z,8.48
2019-04-10T18:12:41.281Z,8.26
2019-04-10T18:15:57.978Z,8.27
2019-04-10T18:19:06.440Z,8.13
2019-04-10T18:22:14.266Z,8.14
2019-04-10T18:25:30.859Z,8.31
2019-04-10T18:28:38.055Z,8.09
2019-04-10T18:31:57.213Z,8.02
2019-04-10T18:35:14.235Z,8.10
2019-04-10T18:38:22.311Z,8.11
2019-04-10T18:41:38.771Z,7.96
2019-04-10T18:44:55.538Z,7.85
2019-04-10T18:48:18.664Z,7.74
2019-04-10T18:51:36.225Z,7.60
2019-04-10T18:54:43.604Z,7.45
2019-04-10T18:57:51.397Z,7.44
2019-04-10T19:01:39.049Z,7.38
2019-04-10T19:04:51.669Z,7.23
2019-04-10T19:08:16.466Z,7.14
2019-04-10T19:11:35.357Z,7.17
2019-04-10T19:14:51.314Z,7.06
2019-04-10T19:17:59.389Z,7.01
2019-04-10T19:21:07.072Z,6.99
2019-04-10T19:24:14.651Z,7.01
2019-04-10T19:27:31.886Z,7.16
2019-04-10T19:30:53.578Z,7.00
2019-04-10T19:34:14.936Z,7.11
2019-04-10T19:37:22.879Z,6.84
2019-04-10T19:40:40.384Z,6.92
2019-04-10T19:43:48.523Z,6.87
2019-04-10T19:47:06.196Z,6.90
2019-04-10T19:50:13.501Z,6.86
2019-04-10T19:53:21.330Z,6.83
2019-04-10T19:56:38.250Z,6.82
2019-04-10T19:59:46.047Z,6.74
2019-04-10T20:02:53.550Z,6.74
2019-04-10T20:06:00.749Z,6.68
2019-04-10T20:09:08.978Z,6.63
2019-04-10T20:12:26.653Z,6.65
2019-04-10T20:15:34.236Z,6.70
2019-04-10T20:18:51.079Z,6.46
2019-04-10T20:22:08.427Z,6.62
2019-04-10T20:25:16.475Z,6.56
2019-04-10T20:28:24.737Z,6.49
2019-04-10T20:31:34.173Z,6.48
2019-04-10T20:34:51.771Z,6.40
2019-04-10T20:37:59.158Z,6.38
2019-04-10T20:41:06.645Z,6.33
2019-04-10T20:44:13.955Z,6.41
2019-04-10T20:47:21.221Z,6.30
2019-04-10T20:50:28.539Z,6.22
2019-04-10T20:53:35.979Z,6.28
2019-04-10T20:56:52.768Z,6.23
2019-04-10T21:00:13.572Z,6.24
2019-04-10T21:03:20.926Z,6.15
2019-04-10T21:06:28.178Z,6.13
2019-04-10T21:09:36.141Z,6.22
2019-04-10T21:12:52.661Z,6.13
2019-04-10T21:16:00.702Z,6.21
2019-04-10T21:19:09.428Z,6.01
2019-04-10T21:22:17.016Z,5.97
2019-04-10T21:25:25.310Z,6.04
2019-04-10T21:28:32.719Z,5.77
2019-04-10T21:31:58.917Z,5.89
2019-04-10T21:35:09.511Z,6.08
2019-04-10T21:38:17.250Z,5.91
2019-04-10T21:41:24.612Z,5.91
2019-04-10T21:44:33.004Z,5.95
2019-04-10T21:47:40.436Z,5.89
2019-04-10T21:50:47.760Z,5.94
2019-04-10T21:53:55.901Z,5.94
2019-04-10T21:57:03.118Z,5.76
2019-04-10T22:00:12.234Z,5.73
2019-04-10T22:03:21.107Z,5.74
2019-04-10T22:06:59.799Z,5.88
2019-04-10T22:10:21.335Z,5.69
2019-04-10T22:13:29.971Z,5.68
2019-04-10T22:16:38.039Z,5.58
2019-04-10T22:19:45.473Z,5.57
2019-04-10T22:22:53.451Z,5.74
2019-04-10T22:26:00.774Z,5.60
2019-04-10T22:29:08.004Z,5.79
2019-04-10T22:32:16.400Z,5.78
2019-04-10T22:35:23.835Z,5.72
2019-04-10T22:38:31.123Z,5.74
2019-04-10T22:41:38.617Z,5.86
2019-04-10T22:44:48.343Z,5.83
2019-04-10T22:48:04.799Z,5.75
2019-04-10T22:51:21.767Z,5.94
2019-04-10T22:54:38.890Z,5.85
2019-04-10T22:57:55.260Z,5.83
2019-04-10T23:01:04.661Z,5.65
2019-04-10T23:04:12.260Z,5.68
2019-04-10T23:07:19.910Z,5.65
2019-04-10T23:10:27.175Z,5.69
2019-04-10T23:13:34.575Z,5.79
2019-04-10T23:16:52.495Z,5.84
2019-04-10T23:20:00.704Z,5.83
2019-04-10T23:23:08.547Z,5.80
2019-04-10T23:26:15.971Z,5.80
2019-04-10T23:29:24.265Z,5.82
2019-04-10T23:32:31.569Z,5.82
2019-04-10T23:35:38.790Z,5.75
2019-04-10T23:38:46.038Z,5.74
2019-04-10T23:41:53.361Z,5.85
2019-04-10T23:45:01.730Z,5.88
2019-04-10T23:48:09.159Z,5.84
2019-04-10T23:51:16.515Z,5.93
2019-04-10T23:54:24.721Z,5.82
2019-04-10T23:57:32.228Z,5.89
